sensor_id;sensor_type;location;lat;lon;timestamp;P1;durP1;ratioP1;P2;durP2;ratioP2
81510;SDS011;70931;48.796;8.440;2024-02-26T00:00:34;4.10;;;0.83;;
81510;SDS011;70931;48.796;8.440;2024-02-26T00:02:59;1.00;;;0.70;;
81510;SDS011;70931;48.796;8.440;2024-02-26T00:05:24;3.03;;;1.10;;
81510;SDS011;70931;48.796;8.440;2024-02-26T00:07:50;2.00;;;0.87;;
81510;SDS011;70931;48.796;8.440;2024-02-26T00:10:15;2.03;;;0.90;;
81510;SDS011;70931;48.796;8.440;2024-02-26T00:12:40;2.10;;;1.00;;
81510;SDS011;70931;48.796;8.440;2024-02-26T00:15:06;1.77;;;0.70;;
81510;SDS011;70931;48.796;8.440;2024-02-26T00:17:32;2.63;;;1.02;;
81510;SDS011;70931;48.796;8.440;2024-02-26T00:19:57;2.73;;;0.70;;
81510;SDS011;70931;48.796;8.440;2024-02-26T00:22:22;1.90;;;0.87;;
81510;SDS011;70931;48.796;8.440;2024-02-26T00:24:47;2.63;;;0.83;;
81510;SDS011;70931;48.796;8.440;2024-02-26T00:27:12;1.93;;;0.93;;
81510;SDS011;70931;48.796;8.440;2024-02-26T00:29:38;3.13;;;0.80;;
81510;SDS011;70931;48.796;8.440;2024-02-26T00:32:03;2.33;;;1.10;;
81510;SDS011;70931;48.796;8.440;2024-02-26T00:34:28;2.22;;;0.60;;
81510;SDS011;70931;48.796;8.440;2024-02-26T00:36:54;1.07;;;0.67;;
81510;SDS011;70931;48.796;8.440;2024-02-26T00:39:19;3.73;;;0.80;;
81510;SDS011;70931;48.796;8.440;2024-02-26T00:41:44;1.17;;;0.63;;
81510;SDS011;70931;48.796;8.440;2024-02-26T00:44:09;1.70;;;0.73;;
81510;SDS011;70931;48.796;8.440;2024-02-26T00:46:34;1.50;;;1.00;;
81510;SDS011;70931;48.796;8.440;2024-02-26T00:49:00;2.23;;;0.90;;
81510;SDS011;70931;48.796;8.440;2024-02-26T00:51:25;2.30;;;0.80;;
81510;SDS011;70931;48.796;8.440;2024-02-26T00:53:50;1.13;;;0.67;;
81510;SDS011;70931;48.796;8.440;2024-02-26T00:56:15;1.60;;;0.70;;
81510;SDS011;70931;48.796;8.440;2024-02-26T00:58:41;1.57;;;0.70;;
81510;SDS011;70931;48.796;8.440;2024-02-26T01:01:06;3.33;;;0.90;;
81510;SDS011;70931;48.796;8.440;2024-02-26T01:03:31;2.33;;;0.90;;
81510;SDS011;70931;48.796;8.440;2024-02-26T01:05:56;1.83;;;0.80;;
81510;SDS011;70931;48.796;8.440;2024-02-26T01:08:21;2.20;;;0.90;;
81510;SDS011;70931;48.796;8.440;2024-02-26T01:10:47;1.93;;;0.90;;
81510;SDS011;70931;48.796;8.440;2024-02-26T01:13:12;1.77;;;0.80;;
81510;SDS011;70931;48.796;8.440;2024-02-26T01:15:37;1.37;;;0.60;;
81510;SDS011;70931;48.796;8.440;2024-02-26T01:18:02;0.87;;;0.60;;
81510;SDS011;70931;48.796;8.440;2024-02-26T01:20:28;0.60;;;0.40;;
81510;SDS011;70931;48.796;8.440;2024-02-26T01:22:53;1.30;;;0.60;;
81510;SDS011;70931;48.796;8.440;2024-02-26T01:25:18;0.87;;;0.50;;
81510;SDS011;70931;48.796;8.440;2024-02-26T01:27:43;2.10;;;0.60;;
81510;SDS011;70931;48.796;8.440;2024-02-26T01:30:09;0.83;;;0.43;;
81510;SDS011;70931;48.796;8.440;2024-02-26T01:32:35;0.40;;;0.40;;
81510;SDS011;70931;48.796;8.440;2024-02-26T01:35:00;1.53;;;0.70;;
81510;SDS011;70931;48.796;8.440;2024-02-26T01:37:26;1.30;;;0.63;;
81510;SDS011;70931;48.796;8.440;2024-02-26T01:39:51;0.80;;;0.60;;
81510;SDS011;70931;48.796;8.440;2024-02-26T01:42:16;0.47;;;0.40;;
81510;SDS011;70931;48.796;8.440;2024-02-26T01:44:41;0.60;;;0.40;;
81510;SDS011;70931;48.796;8.440;2024-02-26T01:47:07;0.53;;;0.47;;
81510;SDS011;70931;48.796;8.440;2024-02-26T01:49:34;0.45;;;0.40;;
81510;SDS011;70931;48.796;8.440;2024-02-26T01:52:00;0.80;;;0.43;;
81510;SDS011;70931;48.796;8.440;2024-02-26T01:54:27;1.20;;;0.50;;
81510;SDS011;70931;48.796;8.440;2024-02-26T01:56:54;1.15;;;0.50;;
81510;SDS011;70931;48.796;8.440;2024-02-26T01:59:19;0.40;;;0.40;;
81510;SDS011;70931;48.796;8.440;2024-02-26T02:01:45;1.45;;;0.57;;
81510;SDS011;70931;48.796;8.440;2024-02-26T02:04:17;1.23;;;0.77;;
81510;SDS011;70931;48.796;8.440;2024-02-26T02:06:42;0.43;;;0.40;;
81510;SDS011;70931;48.796;8.440;2024-02-26T02:09:10;1.10;;;0.60;;
81510;SDS011;70931;48.796;8.440;2024-02-26T02:11:36;0.95;;;0.38;;
81510;SDS011;70931;48.796;8.440;2024-02-26T02:14:01;1.02;;;0.50;;
81510;SDS011;70931;48.796;8.440;2024-02-26T02:16:26;1.27;;;0.43;;
81510;SDS011;70931;48.796;8.440;2024-02-26T02:18:52;1.27;;;0.80;;
81510;SDS011;70931;48.796;8.440;2024-02-26T02:21:17;2.20;;;0.60;;
81510;SDS011;70931;48.796;8.440;2024-02-26T02:23:42;0.67;;;0.57;;
81510;SDS011;70931;48.796;8.440;2024-02-26T02:26:07;1.17;;;0.60;;
81510;SDS011;70931;48.796;8.440;2024-02-26T02:28:33;1.17;;;0.57;;
81510;SDS011;70931;48.796;8.440;2024-02-26T02:30:58;1.50;;;0.60;;
81510;SDS011;70931;48.796;8.440;2024-02-26T02:33:23;1.08;;;0.50;;
81510;SDS011;70931;48.796;8.440;2024-02-26T02:35:50;0.75;;;0.43;;
81510;SDS011;70931;48.796;8.440;2024-02-26T02:38:15;0.63;;;0.40;;
81510;SDS011;70931;48.796;8.440;2024-02-26T02:40:40;0.67;;;0.50;;
81510;SDS011;70931;48.796;8.440;2024-02-26T02:43:05;1.03;;;0.53;;
81510;SDS011;70931;48.796;8.440;2024-02-26T02:45:30;1.23;;;0.60;;
81510;SDS011;70931;48.796;8.440;2024-02-26T02:47:56;0.50;;;0.50;;
81510;SDS011;70931;48.796;8.440;2024-02-26T02:50:21;1.47;;;1.00;;
81510;SDS011;70931;48.796;8.440;2024-02-26T02:52:46;1.33;;;0.70;;
81510;SDS011;70931;48.796;8.440;2024-02-26T02:55:12;1.40;;;0.63;;
81510;SDS011;70931;48.796;8.440;2024-02-26T02:57:37;0.90;;;0.55;;
81510;SDS011;70931;48.796;8.440;2024-02-26T03:00:02;1.13;;;0.53;;
81510;SDS011;70931;48.796;8.440;2024-02-26T03:02:28;1.20;;;0.57;;
81510;SDS011;70931;48.796;8.440;2024-02-26T03:04:53;0.60;;;0.33;;
81510;SDS011;70931;48.796;8.440;2024-02-26T03:07:18;1.63;;;0.70;;
81510;SDS011;70931;48.796;8.440;2024-02-26T03:09:43;1.47;;;0.70;;
81510;SDS011;70931;48.796;8.440;2024-02-26T03:12:09;1.00;;;0.60;;
81510;SDS011;70931;48.796;8.440;2024-02-26T03:14:34;1.23;;;0.57;;
81510;SDS011;70931;48.796;8.440;2024-02-26T03:16:59;1.47;;;0.70;;
81510;SDS011;70931;48.796;8.440;2024-02-26T03:19:25;0.93;;;0.60;;
81510;SDS011;70931;48.796;8.440;2024-02-26T03:21:50;2.33;;;0.47;;
81510;SDS011;70931;48.796;8.440;2024-02-26T03:24:15;1.37;;;0.70;;
81510;SDS011;70931;48.796;8.440;2024-02-26T03:26:40;0.70;;;0.50;;
81510;SDS011;70931;48.796;8.440;2024-02-26T03:29:06;0.60;;;0.40;;
81510;SDS011;70931;48.796;8.440;2024-02-26T03:31:31;1.40;;;0.70;;
81510;SDS011;70931;48.796;8.440;2024-02-26T03:33:56;1.13;;;0.60;;
81510;SDS011;70931;48.796;8.440;2024-02-26T03:36:21;0.90;;;0.57;;
81510;SDS011;70931;48.796;8.440;2024-02-26T03:38:47;0.90;;;0.70;;
81510;SDS011;70931;48.796;8.440;2024-02-26T03:41:13;2.25;;;0.63;;
81510;SDS011;70931;48.796;8.440;2024-02-26T03:43:39;1.38;;;0.70;;
81510;SDS011;70931;48.796;8.440;2024-02-26T03:46:07;2.43;;;0.60;;
81510;SDS011;70931;48.796;8.440;2024-02-26T03:48:32;0.52;;;0.50;;
81510;SDS011;70931;48.796;8.440;2024-02-26T03:50:57;1.17;;;0.60;;
81510;SDS011;70931;48.796;8.440;2024-02-26T03:53:23;1.13;;;0.50;;
81510;SDS011;70931;48.796;8.440;2024-02-26T03:55:48;1.70;;;0.70;;
81510;SDS011;70931;48.796;8.440;2024-02-26T03:58:13;1.13;;;0.70;;
81510;SDS011;70931;48.796;8.440;2024-02-26T04:00:38;1.77;;;0.70;;
81510;SDS011;70931;48.796;8.440;2024-02-26T04:03:04;0.70;;;0.60;;
81510;SDS011;70931;48.796;8.440;2024-02-26T04:05:29;0.98;;;0.57;;
81510;SDS011;70931;48.796;8.440;2024-02-26T04:07:54;0.70;;;0.60;;
81510;SDS011;70931;48.796;8.440;2024-02-26T04:10:19;2.17;;;0.80;;
81510;SDS011;70931;48.796;8.440;2024-02-26T04:12:45;0.77;;;0.70;;
81510;SDS011;70931;48.796;8.440;2024-02-26T04:15:10;0.83;;;0.50;;
81510;SDS011;70931;48.796;8.440;2024-02-26T04:17:36;1.95;;;0.70;;
81510;SDS011;70931;48.796;8.440;2024-02-26T04:20:02;0.98;;;0.43;;
81510;SDS011;70931;48.796;8.440;2024-02-26T04:22:28;1.60;;;0.52;;
81510;SDS011;70931;48.796;8.440;2024-02-26T04:24:53;1.60;;;0.60;;
81510;SDS011;70931;48.796;8.440;2024-02-26T04:27:19;1.10;;;0.60;;
81510;SDS011;70931;48.796;8.440;2024-02-26T04:29:44;1.97;;;0.60;;
81510;SDS011;70931;48.796;8.440;2024-02-26T04:32:09;1.70;;;0.73;;
81510;SDS011;70931;48.796;8.440;2024-02-26T04:34:34;2.53;;;0.70;;
81510;SDS011;70931;48.796;8.440;2024-02-26T04:36:59;2.93;;;0.67;;
81510;SDS011;70931;48.796;8.440;2024-02-26T04:39:25;1.53;;;0.80;;
81510;SDS011;70931;48.796;8.440;2024-02-26T04:41:50;0.60;;;0.50;;
81510;SDS011;70931;48.796;8.440;2024-02-26T04:44:15;1.43;;;0.53;;
81510;SDS011;70931;48.796;8.440;2024-02-26T04:46:40;0.83;;;0.47;;
81510;SDS011;70931;48.796;8.440;2024-02-26T04:49:05;0.40;;;0.40;;
81510;SDS011;70931;48.796;8.440;2024-02-26T04:51:31;1.27;;;0.57;;
81510;SDS011;70931;48.796;8.440;2024-02-26T04:53:56;0.83;;;0.50;;
81510;SDS011;70931;48.796;8.440;2024-02-26T04:56:21;0.70;;;0.60;;
81510;SDS011;70931;48.796;8.440;2024-02-26T04:58:46;0.53;;;0.47;;
81510;SDS011;70931;48.796;8.440;2024-02-26T05:01:12;1.30;;;0.60;;
81510;SDS011;70931;48.796;8.440;2024-02-26T05:03:37;0.90;;;0.50;;
81510;SDS011;70931;48.796;8.440;2024-02-26T05:06:02;2.17;;;0.67;;
81510;SDS011;70931;48.796;8.440;2024-02-26T05:08:29;3.17;;;1.17;;
81510;SDS011;70931;48.796;8.440;2024-02-26T05:10:54;5.73;;;1.97;;
81510;SDS011;70931;48.796;8.440;2024-02-26T05:13:19;3.40;;;1.10;;
81510;SDS011;70931;48.796;8.440;2024-02-26T05:15:44;2.93;;;0.90;;
81510;SDS011;70931;48.796;8.440;2024-02-26T05:18:09;0.50;;;0.50;;
81510;SDS011;70931;48.796;8.440;2024-02-26T05:20:35;1.37;;;0.70;;
81510;SDS011;70931;48.796;8.440;2024-02-26T05:23:00;1.53;;;0.70;;
81510;SDS011;70931;48.796;8.440;2024-02-26T05:25:25;1.90;;;0.90;;
81510;SDS011;70931;48.796;8.440;2024-02-26T05:27:50;1.93;;;0.60;;
81510;SDS011;70931;48.796;8.440;2024-02-26T05:30:16;1.90;;;0.80;;
81510;SDS011;70931;48.796;8.440;2024-02-26T05:32:41;1.20;;;0.70;;
81510;SDS011;70931;48.796;8.440;2024-02-26T05:35:06;1.07;;;0.67;;
81510;SDS011;70931;48.796;8.440;2024-02-26T05:37:32;1.52;;;0.70;;
81510;SDS011;70931;48.796;8.440;2024-02-26T05:39:57;0.83;;;0.53;;
81510;SDS011;70931;48.796;8.440;2024-02-26T05:42:22;0.63;;;0.43;;
81510;SDS011;70931;48.796;8.440;2024-02-26T05:44:47;2.57;;;0.80;;
81510;SDS011;70931;48.796;8.440;2024-02-26T05:47:13;1.00;;;0.60;;
81510;SDS011;70931;48.796;8.440;2024-02-26T05:49:38;1.43;;;0.70;;
81510;SDS011;70931;48.796;8.440;2024-02-26T05:52:03;0.87;;;0.67;;
81510;SDS011;70931;48.796;8.440;2024-02-26T05:54:29;1.33;;;0.57;;
81510;SDS011;70931;48.796;8.440;2024-02-26T05:56:54;2.17;;;0.63;;
81510;SDS011;70931;48.796;8.440;2024-02-26T05:59:19;1.00;;;0.70;;
81510;SDS011;70931;48.796;8.440;2024-02-26T06:01:44;0.63;;;0.60;;
81510;SDS011;70931;48.796;8.440;2024-02-26T06:04:09;1.27;;;0.67;;
81510;SDS011;70931;48.796;8.440;2024-02-26T06:06:35;1.47;;;0.70;;
81510;SDS011;70931;48.796;8.440;2024-02-26T06:09:00;1.43;;;0.70;;
81510;SDS011;70931;48.796;8.440;2024-02-26T06:11:25;2.80;;;0.77;;
81510;SDS011;70931;48.796;8.440;2024-02-26T06:13:50;3.00;;;0.60;;
81510;SDS011;70931;48.796;8.440;2024-02-26T06:16:15;1.97;;;0.67;;
81510;SDS011;70931;48.796;8.440;2024-02-26T06:18:41;1.20;;;0.70;;
81510;SDS011;70931;48.796;8.440;2024-02-26T06:21:10;1.70;;;0.60;;
81510;SDS011;70931;48.796;8.440;2024-02-26T06:23:35;1.00;;;0.40;;
81510;SDS011;70931;48.796;8.440;2024-02-26T06:26:00;1.37;;;0.70;;
81510;SDS011;70931;48.796;8.440;2024-02-26T06:28:25;0.60;;;0.60;;
81510;SDS011;70931;48.796;8.440;2024-02-26T06:30:51;1.03;;;0.50;;
81510;SDS011;70931;48.796;8.440;2024-02-26T06:33:16;1.03;;;0.50;;
81510;SDS011;70931;48.796;8.440;2024-02-26T06:35:41;0.37;;;0.30;;
81510;SDS011;70931;48.796;8.440;2024-02-26T06:38:06;1.00;;;0.63;;
81510;SDS011;70931;48.796;8.440;2024-02-26T06:40:32;0.50;;;0.50;;
81510;SDS011;70931;48.796;8.440;2024-02-26T06:42:57;0.97;;;0.40;;
81510;SDS011;70931;48.796;8.440;2024-02-26T06:45:22;0.47;;;0.43;;
81510;SDS011;70931;48.796;8.440;2024-02-26T06:47:47;1.13;;;0.47;;
81510;SDS011;70931;48.796;8.440;2024-02-26T06:50:13;1.43;;;0.40;;
81510;SDS011;70931;48.796;8.440;2024-02-26T06:52:38;0.50;;;0.50;;
81510;SDS011;70931;48.796;8.440;2024-02-26T06:55:03;0.50;;;0.50;;
81510;SDS011;70931;48.796;8.440;2024-02-26T06:57:28;1.02;;;0.60;;
81510;SDS011;70931;48.796;8.440;2024-02-26T06:59:54;0.97;;;0.57;;
81510;SDS011;70931;48.796;8.440;2024-02-26T07:02:19;0.60;;;0.40;;
81510;SDS011;70931;48.796;8.440;2024-02-26T07:04:44;1.43;;;0.60;;
81510;SDS011;70931;48.796;8.440;2024-02-26T07:07:09;0.63;;;0.50;;
81510;SDS011;70931;48.796;8.440;2024-02-26T07:09:35;1.13;;;0.43;;
81510;SDS011;70931;48.796;8.440;2024-02-26T07:12:00;1.23;;;0.60;;
81510;SDS011;70931;48.796;8.440;2024-02-26T07:14:25;1.47;;;0.53;;
81510;SDS011;70931;48.796;8.440;2024-02-26T07:16:50;1.07;;;0.70;;
81510;SDS011;70931;48.796;8.440;2024-02-26T07:19:16;0.70;;;0.63;;
81510;SDS011;70931;48.796;8.440;2024-02-26T07:21:41;1.00;;;0.50;;
81510;SDS011;70931;48.796;8.440;2024-02-26T07:24:06;0.67;;;0.50;;
81510;SDS011;70931;48.796;8.440;2024-02-26T07:26:32;1.60;;;0.53;;
81510;SDS011;70931;48.796;8.440;2024-02-26T07:28:57;0.27;;;0.27;;
81510;SDS011;70931;48.796;8.440;2024-02-26T07:31:22;0.73;;;0.53;;
81510;SDS011;70931;48.796;8.440;2024-02-26T07:33:47;1.17;;;0.30;;
81510;SDS011;70931;48.796;8.440;2024-02-26T07:36:12;0.57;;;0.50;;
81510;SDS011;70931;48.796;8.440;2024-02-26T07:38:38;1.40;;;0.60;;
81510;SDS011;70931;48.796;8.440;2024-02-26T07:41:03;1.33;;;0.53;;
81510;SDS011;70931;48.796;8.440;2024-02-26T07:43:28;0.77;;;0.65;;
81510;SDS011;70931;48.796;8.440;2024-02-26T07:45:54;0.50;;;0.43;;
81510;SDS011;70931;48.796;8.440;2024-02-26T07:48:19;1.13;;;0.52;;
81510;SDS011;70931;48.796;8.440;2024-02-26T07:50:44;0.33;;;0.30;;
81510;SDS011;70931;48.796;8.440;2024-02-26T07:53:10;1.17;;;0.50;;
81510;SDS011;70931;48.796;8.440;2024-02-26T07:55:35;0.73;;;0.50;;
81510;SDS011;70931;48.796;8.440;2024-02-26T07:58:00;1.00;;;0.40;;
81510;SDS011;70931;48.796;8.440;2024-02-26T08:00:25;1.73;;;0.50;;
81510;SDS011;70931;48.796;8.440;2024-02-26T08:02:51;1.30;;;0.80;;
81510;SDS011;70931;48.796;8.440;2024-02-26T08:05:16;1.47;;;0.70;;
81510;SDS011;70931;48.796;8.440;2024-02-26T08:07:41;1.30;;;0.77;;
81510;SDS011;70931;48.796;8.440;2024-02-26T08:10:06;1.80;;;0.60;;
81510;SDS011;70931;48.796;8.440;2024-02-26T08:12:32;2.15;;;0.60;;
81510;SDS011;70931;48.796;8.440;2024-02-26T08:14:57;1.33;;;0.57;;
81510;SDS011;70931;48.796;8.440;2024-02-26T08:17:23;1.13;;;0.60;;
81510;SDS011;70931;48.796;8.440;2024-02-26T08:19:48;1.63;;;0.70;;
81510;SDS011;70931;48.796;8.440;2024-02-26T08:22:13;1.40;;;0.63;;
81510;SDS011;70931;48.796;8.440;2024-02-26T08:24:39;1.27;;;0.70;;
81510;SDS011;70931;48.796;8.440;2024-02-26T08:27:04;1.47;;;0.80;;
81510;SDS011;70931;48.796;8.440;2024-02-26T08:29:29;0.57;;;0.50;;
81510;SDS011;70931;48.796;8.440;2024-02-26T08:31:54;1.57;;;0.60;;
81510;SDS011;70931;48.796;8.440;2024-02-26T08:34:20;0.37;;;0.37;;
81510;SDS011;70931;48.796;8.440;2024-02-26T08:36:45;0.93;;;0.50;;
81510;SDS011;70931;48.796;8.440;2024-02-26T08:39:10;1.37;;;0.60;;
81510;SDS011;70931;48.796;8.440;2024-02-26T08:41:35;1.70;;;0.40;;
81510;SDS011;70931;48.796;8.440;2024-02-26T08:44:01;1.03;;;0.43;;
81510;SDS011;70931;48.796;8.440;2024-02-26T08:46:26;1.67;;;0.70;;
81510;SDS011;70931;48.796;8.440;2024-02-26T08:48:51;1.37;;;0.50;;
81510;SDS011;70931;48.796;8.440;2024-02-26T08:51:16;0.67;;;0.50;;
81510;SDS011;70931;48.796;8.440;2024-02-26T08:53:42;0.40;;;0.30;;
81510;SDS011;70931;48.796;8.440;2024-02-26T08:56:07;0.70;;;0.47;;
81510;SDS011;70931;48.796;8.440;2024-02-26T08:58:32;0.73;;;0.53;;
81510;SDS011;70931;48.796;8.440;2024-02-26T09:00:57;1.23;;;0.60;;
81510;SDS011;70931;48.796;8.440;2024-02-26T09:03:23;0.53;;;0.40;;
81510;SDS011;70931;48.796;8.440;2024-02-26T09:05:48;0.88;;;0.40;;
81510;SDS011;70931;48.796;8.440;2024-02-26T09:08:14;0.57;;;0.33;;
81510;SDS011;70931;48.796;8.440;2024-02-26T09:10:39;0.85;;;0.50;;
81510;SDS011;70931;48.796;8.440;2024-02-26T09:13:04;0.77;;;0.50;;
81510;SDS011;70931;48.796;8.440;2024-02-26T09:15:30;0.40;;;0.40;;
81510;SDS011;70931;48.796;8.440;2024-02-26T09:17:55;1.03;;;0.50;;
81510;SDS011;70931;48.796;8.440;2024-02-26T09:20:20;0.40;;;0.40;;
81510;SDS011;70931;48.796;8.440;2024-02-26T09:22:46;0.83;;;0.40;;
81510;SDS011;70931;48.796;8.440;2024-02-26T09:25:11;1.52;;;0.50;;
81510;SDS011;70931;48.796;8.440;2024-02-26T09:27:36;0.87;;;0.40;;
81510;SDS011;70931;48.796;8.440;2024-02-26T09:30:02;0.60;;;0.50;;
81510;SDS011;70931;48.796;8.440;2024-02-26T09:32:27;0.80;;;0.50;;
81510;SDS011;70931;48.796;8.440;2024-02-26T09:34:52;1.27;;;0.50;;
81510;SDS011;70931;48.796;8.440;2024-02-26T09:37:17;1.30;;;0.50;;
81510;SDS011;70931;48.796;8.440;2024-02-26T09:39:43;1.17;;;0.50;;
81510;SDS011;70931;48.796;8.440;2024-02-26T09:42:08;1.13;;;0.50;;
81510;SDS011;70931;48.796;8.440;2024-02-26T09:44:34;0.52;;;0.50;;
81510;SDS011;70931;48.796;8.440;2024-02-26T09:47:04;0.50;;;0.50;;
81510;SDS011;70931;48.796;8.440;2024-02-26T09:49:32;1.63;;;0.43;;
81510;SDS011;70931;48.796;8.440;2024-02-26T09:51:57;0.60;;;0.50;;
81510;SDS011;70931;48.796;8.440;2024-02-26T09:54:24;1.80;;;0.40;;
81510;SDS011;70931;48.796;8.440;2024-02-26T09:56:50;0.90;;;0.45;;
81510;SDS011;70931;48.796;8.440;2024-02-26T09:59:19;0.85;;;0.32;;
81510;SDS011;70931;48.796;8.440;2024-02-26T10:01:44;0.40;;;0.40;;
81510;SDS011;70931;48.796;8.440;2024-02-26T10:04:12;0.65;;;0.30;;
81510;SDS011;70931;48.796;8.440;2024-02-26T10:06:37;1.48;;;0.40;;
81510;SDS011;70931;48.796;8.440;2024-02-26T10:09:03;0.37;;;0.23;;
81510;SDS011;70931;48.796;8.440;2024-02-26T10:11:28;0.55;;;0.30;;
81510;SDS011;70931;48.796;8.440;2024-02-26T10:13:53;1.47;;;0.60;;
81510;SDS011;70931;48.796;8.440;2024-02-26T10:16:19;0.50;;;0.33;;
81510;SDS011;70931;48.796;8.440;2024-02-26T10:18:45;0.52;;;0.20;;
81510;SDS011;70931;48.796;8.440;2024-02-26T10:21:15;0.10;;;0.10;;
81510;SDS011;70931;48.796;8.440;2024-02-26T10:23:41;0.10;;;0.10;;
81510;SDS011;70931;48.796;8.440;2024-02-26T10:26:06;0.38;;;0.38;;
81510;SDS011;70931;48.796;8.440;2024-02-26T10:28:33;0.10;;;0.10;;
81510;SDS011;70931;48.796;8.440;2024-02-26T10:30:58;0.60;;;0.27;;
81510;SDS011;70931;48.796;8.440;2024-02-26T10:33:23;0.27;;;0.10;;
81510;SDS011;70931;48.796;8.440;2024-02-26T10:35:49;0.30;;;0.20;;
81510;SDS011;70931;48.796;8.440;2024-02-26T10:38:15;0.23;;;0.20;;
81510;SDS011;70931;48.796;8.440;2024-02-26T10:40:40;0.37;;;0.37;;
81510;SDS011;70931;48.796;8.440;2024-02-26T10:43:05;0.50;;;0.30;;
81510;SDS011;70931;48.796;8.440;2024-02-26T10:45:31;0.20;;;0.20;;
81510;SDS011;70931;48.796;8.440;2024-02-26T10:47:57;0.43;;;0.32;;
81510;SDS011;70931;48.796;8.440;2024-02-26T10:50:22;0.85;;;0.63;;
81510;SDS011;70931;48.796;8.440;2024-02-26T10:52:49;0.32;;;0.32;;
81510;SDS011;70931;48.796;8.440;2024-02-26T10:55:17;0.90;;;0.45;;
81510;SDS011;70931;48.796;8.440;2024-02-26T10:57:42;0.70;;;0.38;;
81510;SDS011;70931;48.796;8.440;2024-02-26T11:00:10;0.90;;;0.40;;
81510;SDS011;70931;48.796;8.440;2024-02-26T11:02:38;0.52;;;0.40;;
81510;SDS011;70931;48.796;8.440;2024-02-26T11:05:05;0.47;;;0.30;;
81510;SDS011;70931;48.796;8.440;2024-02-26T11:07:35;0.38;;;0.20;;
81510;SDS011;70931;48.796;8.440;2024-02-26T11:10:00;1.65;;;0.60;;
81510;SDS011;70931;48.796;8.440;2024-02-26T11:12:27;0.30;;;0.30;;
81510;SDS011;70931;48.796;8.440;2024-02-26T11:17:19;0.32;;;0.32;;
81510;SDS011;70931;48.796;8.440;2024-02-26T11:19:46;0.45;;;0.30;;
81510;SDS011;70931;48.796;8.440;2024-02-26T11:22:13;0.45;;;0.20;;
81510;SDS011;70931;48.796;8.440;2024-02-26T11:24:38;0.20;;;0.20;;
81510;SDS011;70931;48.796;8.440;2024-02-26T11:27:04;0.40;;;0.20;;
81510;SDS011;70931;48.796;8.440;2024-02-26T11:29:34;0.70;;;0.32;;
81510;SDS011;70931;48.796;8.440;2024-02-26T11:32:03;0.20;;;0.20;;
81510;SDS011;70931;48.796;8.440;2024-02-26T11:34:30;0.30;;;0.30;;
81510;SDS011;70931;48.796;8.440;2024-02-26T11:36:55;0.27;;;0.20;;
81510;SDS011;70931;48.796;8.440;2024-02-26T11:39:21;0.13;;;0.13;;
81510;SDS011;70931;48.796;8.440;2024-02-26T11:41:47;0.20;;;0.20;;
81510;SDS011;70931;48.796;8.440;2024-02-26T11:44:12;0.37;;;0.20;;
81510;SDS011;70931;48.796;8.440;2024-02-26T11:46:41;1.47;;;0.87;;
81510;SDS011;70931;48.796;8.440;2024-02-26T11:51:50;0.15;;;0.15;;
81510;SDS011;70931;48.796;8.440;2024-02-26T11:57:37;0.17;;;0.17;;
81510;SDS011;70931;48.796;8.440;2024-02-26T12:02:40;0.22;;;0.22;;
81510;SDS011;70931;48.796;8.440;2024-02-26T12:05:21;0.30;;;0.20;;
81510;SDS011;70931;48.796;8.440;2024-02-26T12:07:47;0.30;;;0.30;;
81510;SDS011;70931;48.796;8.440;2024-02-26T12:10:24;0.55;;;0.20;;
81510;SDS011;70931;48.796;8.440;2024-02-26T12:12:53;0.20;;;0.20;;
81510;SDS011;70931;48.796;8.440;2024-02-26T12:15:32;0.80;;;0.30;;
81510;SDS011;70931;48.796;8.440;2024-02-26T12:18:02;0.60;;;0.22;;
81510;SDS011;70931;48.796;8.440;2024-02-26T12:20:29;0.20;;;0.20;;
81510;SDS011;70931;48.796;8.440;2024-02-26T12:22:54;0.20;;;0.20;;
81510;SDS011;70931;48.796;8.440;2024-02-26T12:25:23;0.38;;;0.38;;
81510;SDS011;70931;48.796;8.440;2024-02-26T12:27:50;0.38;;;0.30;;
81510;SDS011;70931;48.796;8.440;2024-02-26T12:30:15;0.98;;;0.40;;
81510;SDS011;70931;48.796;8.440;2024-02-26T12:32:42;0.35;;;0.35;;
81510;SDS011;70931;48.796;8.440;2024-02-26T12:35:07;0.77;;;0.55;;
81510;SDS011;70931;48.796;8.440;2024-02-26T12:37:33;0.10;;;0.10;;
81510;SDS011;70931;48.796;8.440;2024-02-26T12:39:58;0.45;;;0.35;;
81510;SDS011;70931;48.796;8.440;2024-02-26T12:42:24;0.20;;;0.20;;
81510;SDS011;70931;48.796;8.440;2024-02-26T12:44:49;0.37;;;0.30;;
81510;SDS011;70931;48.796;8.440;2024-02-26T12:47:15;0.25;;;0.22;;
81510;SDS011;70931;48.796;8.440;2024-02-26T12:49:41;1.35;;;0.30;;
81510;SDS011;70931;48.796;8.440;2024-02-26T12:52:06;0.27;;;0.20;;
81510;SDS011;70931;48.796;8.440;2024-02-26T12:54:32;0.32;;;0.22;;
81510;SDS011;70931;48.796;8.440;2024-02-26T12:56:59;0.82;;;0.35;;
81510;SDS011;70931;48.796;8.440;2024-02-26T12:59:25;0.20;;;0.20;;
81510;SDS011;70931;48.796;8.440;2024-02-26T13:01:51;0.38;;;0.38;;
81510;SDS011;70931;48.796;8.440;2024-02-26T13:04:16;0.07;;;0.07;;
81510;SDS011;70931;48.796;8.440;2024-02-26T13:06:42;1.02;;;0.17;;
81510;SDS011;70931;48.796;8.440;2024-02-26T13:09:07;0.67;;;0.20;;
81510;SDS011;70931;48.796;8.440;2024-02-26T13:11:33;0.20;;;0.20;;
81510;SDS011;70931;48.796;8.440;2024-02-26T13:13:58;1.27;;;0.23;;
81510;SDS011;70931;48.796;8.440;2024-02-26T13:16:24;0.67;;;0.20;;
81510;SDS011;70931;48.796;8.440;2024-02-26T13:18:50;0.38;;;0.25;;
81510;SDS011;70931;48.796;8.440;2024-02-26T13:21:16;0.57;;;0.22;;
81510;SDS011;70931;48.796;8.440;2024-02-26T13:23:43;3.20;;;0.60;;
81510;SDS011;70931;48.796;8.440;2024-02-26T13:26:13;1.05;;;0.50;;
81510;SDS011;70931;48.796;8.440;2024-02-26T13:28:39;2.13;;;0.70;;
81510;SDS011;70931;48.796;8.440;2024-02-26T13:31:04;1.67;;;0.70;;
81510;SDS011;70931;48.796;8.440;2024-02-26T13:33:30;2.55;;;0.70;;
81510;SDS011;70931;48.796;8.440;2024-02-26T13:35:56;0.57;;;0.57;;
81510;SDS011;70931;48.796;8.440;2024-02-26T13:38:22;1.88;;;0.75;;
81510;SDS011;70931;48.796;8.440;2024-02-26T13:40:47;0.77;;;0.57;;
81510;SDS011;70931;48.796;8.440;2024-02-26T13:43:13;0.77;;;0.53;;
81510;SDS011;70931;48.796;8.440;2024-02-26T13:45:38;1.77;;;0.70;;
81510;SDS011;70931;48.796;8.440;2024-02-26T13:48:04;1.83;;;0.70;;
81510;SDS011;70931;48.796;8.440;2024-02-26T13:50:31;2.00;;;0.70;;
81510;SDS011;70931;48.796;8.440;2024-02-26T13:52:56;2.05;;;0.80;;
81510;SDS011;70931;48.796;8.440;2024-02-26T13:55:22;2.27;;;1.00;;
81510;SDS011;70931;48.796;8.440;2024-02-26T13:57:47;2.30;;;0.80;;
81510;SDS011;70931;48.796;8.440;2024-02-26T14:00:13;3.22;;;0.90;;
81510;SDS011;70931;48.796;8.440;2024-02-26T14:02:38;2.35;;;0.90;;
81510;SDS011;70931;48.796;8.440;2024-02-26T14:05:04;2.90;;;0.93;;
81510;SDS011;70931;48.796;8.440;2024-02-26T14:07:29;3.05;;;1.23;;
81510;SDS011;70931;48.796;8.440;2024-02-26T14:09:55;3.38;;;1.00;;
81510;SDS011;70931;48.796;8.440;2024-02-26T14:12:20;1.47;;;0.80;;
81510;SDS011;70931;48.796;8.440;2024-02-26T14:14:45;2.53;;;1.20;;
81510;SDS011;70931;48.796;8.440;2024-02-26T14:17:10;3.37;;;1.10;;
81510;SDS011;70931;48.796;8.440;2024-02-26T14:19:35;2.97;;;1.00;;
81510;SDS011;70931;48.796;8.440;2024-02-26T14:22:01;1.57;;;0.80;;
81510;SDS011;70931;48.796;8.440;2024-02-26T14:24:26;2.67;;;0.90;;
81510;SDS011;70931;48.796;8.440;2024-02-26T14:26:51;2.50;;;0.87;;
81510;SDS011;70931;48.796;8.440;2024-02-26T14:29:16;0.73;;;0.60;;
81510;SDS011;70931;48.796;8.440;2024-02-26T14:31:42;2.77;;;0.90;;
81510;SDS011;70931;48.796;8.440;2024-02-26T14:34:07;2.67;;;0.70;;
81510;SDS011;70931;48.796;8.440;2024-02-26T14:36:32;1.50;;;0.70;;
81510;SDS011;70931;48.796;8.440;2024-02-26T14:38:57;1.53;;;0.70;;
81510;SDS011;70931;48.796;8.440;2024-02-26T14:41:22;1.73;;;0.80;;
81510;SDS011;70931;48.796;8.440;2024-02-26T14:43:48;2.20;;;0.77;;
81510;SDS011;70931;48.796;8.440;2024-02-26T14:46:13;1.50;;;0.70;;
81510;SDS011;70931;48.796;8.440;2024-02-26T14:48:38;2.40;;;0.90;;